createdAt,value
2018-05-18T00:00:41.665Z,47.07
2018-05-18T00:03:09.197Z,47.06
2018-05-18T00:05:37.823Z,47.43
2018-05-18T00:08:06.098Z,47.96
2018-05-18T00:10:33.639Z,48.33
2018-05-18T00:13:01.178Z,48.58
2018-05-18T00:15:29.194Z,48.84
2018-05-18T00:17:56.768Z,49.25
2018-05-18T00:20:24.383Z,49.62
2018-05-18T00:22:52.667Z,49.30
2018-05-18T00:25:20.214Z,49.96
2018-05-18T00:27:48.549Z,49.95
2018-05-18T00:30:16.078Z,50.00
2018-05-18T00:32:44.258Z,50.53
2018-05-18T00:35:12.733Z,50.94
2018-05-18T00:37:41.146Z,51.33
2018-05-18T00:40:08.699Z,51.60
2018-05-18T00:42:36.954Z,51.98
2018-05-18T00:45:05.184Z,51.84
2018-05-18T00:47:33.326Z,51.94
2018-05-18T00:50:00.861Z,51.95
2018-05-18T00:52:28.412Z,51.89
2018-05-18T00:54:56.004Z,51.97
2018-05-18T00:57:23.547Z,52.33
2018-05-18T00:59:51.096Z,52.78
2018-05-18T01:02:19.038Z,53.07
2018-05-18T01:04:47.307Z,53.34
2018-05-18T01:07:15.309Z,53.72
2018-05-18T01:09:42.876Z,53.99
2018-05-18T01:12:10.794Z,54.29
2018-05-18T01:14:38.976Z,54.48
2018-05-18T01:17:06.522Z,54.50
2018-05-18T01:19:34.517Z,54.53
2018-05-18T01:22:02.044Z,54.79
2018-05-18T01:24:30.170Z,54.76
2018-05-18T01:26:58.629Z,55.16
2018-05-18T01:29:26.563Z,55.11
2018-05-18T01:31:54.095Z,54.92
2018-05-18T01:34:22.291Z,54.80
2018-05-18T01:36:51.171Z,54.70
2018-05-18T01:39:18.778Z,54.65
2018-05-18T01:41:46.664Z,54.89
2018-05-18T01:44:14.236Z,55.17
2018-05-18T01:46:42.709Z,55.09
2018-05-18T01:49:10.656Z,55.30
2018-05-18T01:51:38.892Z,55.38
2018-05-18T01:54:06.437Z,55.48
2018-05-18T01:56:33.969Z,55.68
2018-05-18T01:59:01.547Z,55.82
2018-05-18T02:01:29.079Z,55.97
2018-05-18T02:03:57.184Z,56.03
2018-05-18T02:06:25.320Z,56.62
2018-05-18T02:08:53.788Z,56.52
2018-05-18T02:11:21.337Z,56.98
2018-05-18T02:13:48.872Z,57.24
2018-05-18T02:16:16.893Z,57.38
2018-05-18T02:18:44.476Z,57.76
2018-05-18T02:21:12.733Z,57.88
2018-05-18T02:23:40.930Z,58.42
2018-05-18T02:26:08.470Z,58.44
2018-05-18T02:28:36.625Z,57.88
2018-05-18T02:31:04.873Z,58.57
2018-05-18T02:33:33.021Z,58.43
2018-05-18T02:36:00.552Z,58.83
2018-05-18T02:38:28.928Z,58.93
2018-05-18T02:40:56.476Z,58.62
2018-05-18T02:43:24.032Z,58.89
2018-05-18T02:45:51.606Z,59.10
2018-05-18T02:48:19.155Z,59.04
2018-05-18T02:50:47.394Z,58.85
2018-05-18T02:53:14.957Z,58.36
2018-05-18T02:55:43.084Z,59.27
2018-05-18T02:58:10.836Z,58.87
2018-05-18T03:00:38.429Z,59.07
2018-05-18T03:03:06.003Z,59.23
2018-05-18T03:05:34.168Z,58.44
2018-05-18T03:08:02.480Z,57.72
2018-05-18T03:10:30.586Z,56.87
2018-05-18T03:12:58.155Z,56.88
2018-05-18T03:15:26.332Z,57.24
2018-05-18T03:17:53.874Z,57.35
2018-05-18T03:20:21.408Z,57.85
2018-05-18T03:22:49.495Z,58.01
2018-05-18T03:25:17.648Z,58.04
2018-05-18T03:27:46.164Z,57.30
2018-05-18T03:30:13.698Z,56.10
2018-05-18T03:32:41.540Z,54.98
2018-05-18T03:35:09.824Z,53.64
2018-05-18T03:37:38.982Z,52.30
2018-05-18T03:40:06.518Z,52.16
2018-05-18T03:42:34.898Z,49.33
2018-05-18T03:45:02.433Z,48.89
2018-05-18T03:47:29.982Z,47.77
2018-05-18T03:49:58.382Z,46.61
2018-05-18T03:52:26.187Z,46.70
2018-05-18T03:54:53.719Z,46.20
2018-05-18T03:57:21.287Z,45.66
2018-05-18T03:59:49.830Z,46.47
2018-05-18T04:02:29.070Z,46.70
2018-05-18T04:05:11.045Z,47.86
2018-05-18T04:08:03.790Z,48.81
2018-05-18T04:10:31.349Z,50.09
2018-05-18T04:12:59.779Z,50.51
2018-05-18T04:15:28.286Z,51.47
2018-05-18T04:17:55.821Z,51.49
2018-05-18T04:20:23.358Z,52.26
2018-05-18T04:22:51.547Z,52.48
2018-05-18T04:25:19.103Z,52.50
2018-05-18T04:27:47.115Z,52.70
2018-05-18T04:30:15.501Z,53.13
2018-05-18T04:32:42.990Z,53.69
2018-05-18T04:35:12.415Z,53.74
2018-05-18T04:37:41.309Z,53.69
2018-05-18T04:40:08.852Z,54.01
2018-05-18T04:42:36.407Z,54.21
2018-05-18T04:45:04.897Z,54.39
2018-05-18T04:47:32.431Z,54.05
2018-05-18T04:50:00.739Z,54.27
2018-05-18T04:52:28.282Z,54.17
2018-05-18T04:54:56.099Z,54.14
2018-05-18T04:57:23.704Z,53.90
2018-05-18T04:59:51.234Z,52.95
2018-05-18T05:02:19.395Z,53.33
2018-05-18T05:04:47.407Z,53.77
2018-05-18T05:07:16.053Z,53.84
2018-05-18T05:09:43.597Z,54.18
2018-05-18T05:12:12.090Z,52.99
2018-05-18T05:14:40.595Z,52.69
2018-05-18T05:17:09.661Z,52.26
2018-05-18T05:19:37.191Z,51.67
2018-05-18T05:22:04.755Z,51.83
2018-05-18T05:24:32.924Z,51.39
2018-05-18T05:27:00.599Z,51.42
2018-05-18T05:29:29.053Z,50.81
2018-05-18T05:31:57.085Z,49.76
2018-05-18T05:34:25.507Z,49.33
2018-05-18T05:36:53.784Z,48.65
2018-05-18T05:39:21.342Z,49.93
2018-05-18T05:41:49.063Z,48.26
2018-05-18T05:44:16.643Z,48.80
2018-05-18T05:46:44.236Z,49.39
2018-05-18T05:49:12.579Z,48.61
2018-05-18T05:51:40.282Z,48.67
2018-05-18T05:54:07.843Z,48.96
2018-05-18T05:56:35.430Z,49.30
2018-05-18T05:59:03.634Z,48.60
2018-05-18T06:01:31.175Z,48.28
2018-05-18T06:03:59.336Z,46.85
2018-05-18T06:06:27.553Z,47.72
2018-05-18T06:08:55.950Z,47.63
2018-05-18T06:11:23.531Z,46.54
2018-05-18T06:13:51.143Z,47.38
2018-05-18T06:16:19.340Z,46.72
2018-05-18T06:18:46.903Z,46.02
2018-05-18T06:21:14.965Z,45.93
2018-05-18T06:23:43.376Z,44.89
2018-05-18T06:26:11.927Z,44.34
2018-05-18T06:28:42.157Z,44.31
2018-05-18T06:31:09.749Z,42.89
2018-05-18T06:33:37.861Z,42.61
2018-05-18T06:36:05.421Z,42.84
2018-05-18T06:38:33.729Z,42.47
2018-05-18T06:41:01.272Z,42.99
2018-05-18T06:43:28.814Z,42.52
2018-05-18T06:45:56.404Z,41.31
2018-05-18T06:48:24.006Z,41.81
2018-05-18T06:50:52.208Z,41.42
2018-05-18T06:53:20.440Z,41.18
2018-05-18T06:55:47.968Z,39.93
2018-05-18T06:58:15.539Z,40.76
2018-05-18T07:00:43.108Z,40.45
2018-05-18T07:03:11.311Z,40.65
2018-05-18T07:05:40.504Z,40.08
2018-05-18T07:08:10.250Z,39.27
2018-05-18T07:10:37.842Z,39.18
2018-05-18T07:13:05.393Z,38.44
2018-05-18T07:15:33.871Z,38.86
2018-05-18T07:18:01.432Z,39.00
2018-05-18T07:20:28.989Z,38.46
2018-05-18T07:22:57.113Z,38.54
2018-05-18T07:25:25.308Z,38.50
2018-05-18T07:27:53.454Z,38.10
2018-05-18T07:30:21.155Z,36.89
2018-05-18T07:32:48.751Z,37.55
2018-05-18T07:35:16.316Z,38.24
2018-05-18T07:37:44.783Z,37.49
2018-05-18T07:40:12.869Z,37.71
2018-05-18T07:42:40.917Z,36.38
2018-05-18T07:45:09.088Z,36.97
2018-05-18T07:47:36.771Z,36.35
2018-05-18T07:50:04.840Z,36.85
2018-05-18T07:52:32.383Z,36.87
2018-05-18T07:54:59.941Z,35.99
2018-05-18T07:57:27.951Z,35.37
2018-05-18T07:59:55.498Z,35.41
2018-05-18T08:02:23.102Z,35.22
2018-05-18T08:04:51.473Z,35.46
2018-05-18T08:07:19.696Z,35.00
2018-05-18T08:09:47.245Z,35.07
2018-05-18T08:12:15.574Z,35.73
2018-05-18T08:14:43.756Z,33.89
2018-05-18T08:17:11.976Z,33.73
2018-05-18T08:19:39.643Z,33.94
2018-05-18T08:22:07.232Z,33.84
2018-05-18T08:24:35.283Z,33.41
2018-05-18T08:27:14.570Z,33.38
2018-05-18T08:29:42.617Z,33.46
2018-05-18T08:32:11.869Z,34.07
2018-05-18T08:34:39.696Z,32.60
2018-05-18T08:37:07.754Z,33.80
2018-05-18T08:39:35.314Z,33.30
2018-05-18T08:42:02.875Z,33.04
2018-05-18T08:44:31.012Z,32.65
2018-05-18T08:46:58.558Z,33.06
2018-05-18T08:49:26.803Z,33.50
2018-05-18T08:51:54.343Z,32.81
2018-05-18T08:54:21.885Z,33.97
2018-05-18T08:56:49.502Z,32.61
2018-05-18T08:59:17.047Z,32.83
2018-05-18T09:01:45.171Z,31.43
2018-05-18T09:04:12.711Z,30.65
2018-05-18T09:06:41.876Z,30.27
2018-05-18T09:09:10.080Z,29.82
2018-05-18T09:11:37.631Z,30.40
2018-05-18T09:14:05.964Z,29.99
2018-05-18T09:16:34.208Z,28.67
2018-05-18T09:19:01.746Z,29.49
2018-05-18T09:21:29.921Z,28.59
2018-05-18T09:23:57.503Z,29.80
2018-05-18T09:26:25.050Z,29.96
2018-05-18T09:28:53.389Z,29.15
2018-05-18T09:31:21.523Z,29.66
2018-05-18T09:33:49.815Z,28.78
2018-05-18T09:36:17.324Z,28.88
2018-05-18T09:38:45.314Z,28.40
2018-05-18T09:41:12.876Z,28.87
2018-05-18T09:43:40.994Z,29.93
2018-05-18T09:46:08.658Z,29.02
2018-05-18T09:48:36.796Z,27.81
2018-05-18T09:51:04.846Z,27.92
2018-05-18T09:53:32.380Z,27.92
2018-05-18T09:55:59.930Z,29.00
2018-05-18T09:58:27.502Z,28.01
2018-05-18T10:00:55.043Z,27.85
2018-05-18T10:03:22.581Z,27.97
2018-05-18T10:05:51.172Z,27.85
2018-05-18T10:08:19.860Z,28.23
2018-05-18T10:10:47.394Z,27.64
2018-05-18T10:13:14.942Z,26.01
2018-05-18T10:15:43.307Z,26.46
2018-05-18T10:18:11.435Z,26.16
2018-05-18T10:20:39.696Z,24.74
2018-05-18T10:23:07.244Z,25.31
2018-05-18T10:25:34.785Z,25.88
2018-05-18T10:28:03.019Z,25.44
2018-05-18T10:30:31.266Z,25.46
2018-05-18T10:32:58.840Z,25.26
2018-05-18T10:35:26.392Z,25.62
2018-05-18T10:37:54.596Z,26.02
2018-05-18T10:40:22.373Z,27.12
2018-05-18T10:42:49.968Z,25.50
2018-05-18T10:45:17.562Z,26.34
2018-05-18T10:47:45.149Z,26.74
2018-05-18T10:50:13.248Z,25.86
2018-05-18T10:52:42.468Z,25.02
2018-05-18T10:55:10.570Z,24.72
2018-05-18T10:57:38.138Z,26.01
2018-05-18T11:00:05.709Z,26.27
2018-05-18T11:02:33.247Z,26.31
2018-05-18T11:05:01.496Z,25.66
2018-05-18T11:07:29.568Z,25.79
2018-05-18T11:09:58.532Z,26.45
2018-05-18T11:12:26.059Z,26.97
2018-05-18T11:14:54.188Z,25.47
2018-05-18T11:17:22.265Z,25.08
2018-05-18T11:19:49.803Z,25.19
2018-05-18T11:22:17.330Z,25.45
2018-05-18T11:24:46.228Z,25.55
2018-05-18T11:27:14.641Z,26.12
2018-05-18T11:29:42.927Z,25.54
2018-05-18T11:32:13.720Z,25.37
2018-05-18T11:34:42.117Z,26.04
2018-05-18T11:37:11.367Z,25.16
2018-05-18T11:39:38.923Z,25.80
2018-05-18T11:42:07.047Z,26.16
2018-05-18T11:44:34.575Z,25.40
2018-05-18T11:47:02.129Z,24.70
2018-05-18T11:49:30.363Z,25.62
2018-05-18T11:51:57.903Z,25.05
2018-05-18T11:54:25.515Z,25.83
2018-05-18T11:56:53.747Z,25.20
2018-05-18T11:59:21.298Z,24.71
2018-05-18T12:01:48.828Z,24.82
2018-05-18T12:04:16.408Z,24.84
2018-05-18T12:06:44.509Z,24.59
2018-05-18T12:09:12.051Z,25.21
2018-05-18T12:11:39.737Z,25.30
2018-05-18T12:14:08.133Z,24.70
2018-05-18T12:16:35.668Z,25.10
2018-05-18T12:19:03.197Z,24.58
2018-05-18T12:21:30.764Z,24.94
2018-05-18T12:23:58.290Z,25.58
2018-05-18T12:26:25.969Z,25.19
2018-05-18T12:28:54.271Z,24.88
2018-05-18T12:31:22.428Z,24.87
2018-05-18T12:33:49.967Z,24.79
2018-05-18T12:36:17.527Z,25.66
2018-05-18T12:38:45.495Z,25.03
2018-05-18T12:41:13.079Z,25.99
2018-05-18T12:43:41.152Z,25.62
2018-05-18T12:46:09.121Z,25.16
2018-05-18T12:48:36.965Z,25.84
2018-05-18T12:51:04.991Z,25.50
2018-05-18T12:53:32.526Z,25.75
2018-05-18T12:56:00.063Z,25.62
2018-05-18T12:58:27.704Z,25.19
2018-05-18T13:00:55.938Z,25.75
2018-05-18T13:03:23.490Z,25.82
2018-05-18T13:05:52.268Z,25.29
2018-05-18T13:08:20.716Z,25.54
2018-05-18T13:10:48.788Z,25.04
2018-05-18T13:13:16.951Z,25.42
2018-05-18T13:15:45.178Z,25.03
2018-05-18T13:18:12.708Z,25.77
2018-05-18T13:20:40.811Z,25.24
2018-05-18T13:23:08.389Z,25.38
2018-05-18T13:25:35.938Z,25.83
2018-05-18T13:28:04.304Z,25.33
2018-05-18T13:30:32.420Z,25.78
2018-05-18T13:33:00.638Z,25.96
2018-05-18T13:35:28.191Z,25.29
2018-05-18T13:37:56.318Z,24.86
2018-05-18T13:40:23.854Z,24.54
2018-05-18T13:42:51.402Z,25.17
2018-05-18T13:45:18.988Z,25.80
2018-05-18T13:47:47.164Z,26.17
2018-05-18T13:50:15.305Z,25.95
2018-05-18T13:52:42.876Z,25.50
2018-05-18T13:55:11.447Z,25.21
2018-05-18T13:57:39.037Z,25.92
2018-05-18T14:00:06.597Z,24.31
2018-05-18T14:02:34.352Z,24.01
2018-05-18T14:05:02.391Z,24.87
2018-05-18T14:07:31.120Z,24.46
2018-05-18T14:09:59.294Z,24.42
2018-05-18T14:12:27.654Z,24.65
2018-05-18T14:14:56.130Z,24.58
2018-05-18T14:17:23.683Z,24.35
2018-05-18T14:19:52.264Z,24.86
2018-05-18T14:22:19.807Z,24.48
2018-05-18T14:24:47.340Z,24.74
2018-05-18T14:27:14.924Z,25.02
2018-05-18T14:29:42.836Z,25.18
2018-05-18T14:32:11.082Z,24.62
2018-05-18T14:34:38.615Z,25.12
2018-05-18T14:37:07.053Z,24.66
2018-05-18T14:39:34.622Z,24.37
2018-05-18T14:42:02.164Z,23.75
2018-05-18T14:44:30.522Z,24.00
2018-05-18T14:46:58.063Z,24.08
2018-05-18T14:49:26.219Z,24.62
2018-05-18T14:51:54.119Z,24.44
2018-05-18T14:54:21.660Z,23.99
2018-05-18T14:56:49.203Z,24.56
2018-05-18T14:59:16.768Z,23.47
2018-05-18T15:01:44.322Z,24.14
2018-05-18T15:04:12.826Z,24.53
2018-05-18T15:06:41.631Z,24.20
2018-05-18T15:09:09.667Z,24.34
2018-05-18T15:11:37.395Z,24.94
2018-05-18T15:14:05.354Z,23.54
2018-05-18T15:16:32.890Z,23.98
2018-05-18T15:19:00.422Z,24.26
2018-05-18T15:21:27.992Z,24.83
2018-05-18T15:23:56.246Z,24.41
2018-05-18T15:26:23.787Z,24.58
2018-05-18T15:28:52.221Z,24.06
2018-05-18T15:31:20.391Z,23.69
2018-05-18T15:33:47.922Z,22.41
2018-05-18T15:36:15.455Z,21.89
2018-05-18T15:38:43.827Z,21.61
2018-05-18T15:41:13.067Z,19.88
2018-05-18T15:43:41.302Z,19.21
2018-05-18T15:46:08.844Z,18.85
2018-05-18T15:48:36.415Z,18.91
2018-05-18T15:51:04.507Z,19.16
2018-05-18T15:53:32.038Z,18.07
2018-05-18T15:56:00.584Z,18.04
2018-05-18T15:58:28.310Z,17.52
2018-05-18T16:00:55.834Z,17.17
2018-05-18T16:03:23.417Z,17.08
2018-05-18T16:05:51.432Z,16.48
2018-05-18T16:08:19.736Z,16.56
2018-05-18T16:10:47.938Z,16.75
2018-05-18T16:13:15.843Z,16.25
2018-05-18T16:15:43.937Z,16.27
2018-05-18T16:18:11.490Z,16.08
2018-05-18T16:20:39.026Z,16.00
2018-05-18T16:23:06.607Z,15.92
2018-05-18T16:25:34.224Z,15.72
2018-05-18T16:28:02.934Z,16.06
2018-05-18T16:30:31.327Z,16.10
2018-05-18T16:32:58.881Z,15.83
2018-05-18T16:35:26.511Z,16.37
2018-05-18T16:37:54.866Z,16.65
2018-05-18T16:40:22.619Z,16.86
2018-05-18T16:42:50.153Z,17.06
2018-05-18T16:45:18.320Z,16.20
2018-05-18T16:47:45.866Z,16.67
2018-05-18T16:50:13.823Z,16.64
2018-05-18T16:52:41.420Z,16.31
2018-05-18T16:55:08.953Z,16.40
2018-05-18T16:57:36.527Z,16.57
2018-05-18T17:00:05.120Z,16.90
2018-05-18T17:02:33.343Z,15.94
2018-05-18T17:05:01.861Z,16.18
2018-05-18T17:07:29.943Z,15.87
2018-05-18T17:09:57.502Z,15.90
2018-05-18T17:12:25.059Z,16.65
2018-05-18T17:14:53.476Z,16.75
2018-05-18T17:17:21.315Z,17.20
2018-05-18T17:19:48.906Z,17.26
2018-05-18T17:22:16.420Z,17.54
2018-05-18T17:24:44.017Z,18.07
2018-05-18T17:27:12.334Z,18.00
2018-05-18T17:29:41.845Z,18.14
2018-05-18T17:32:09.894Z,17.15
2018-05-18T17:34:37.480Z,17.39
2018-05-18T17:37:05.602Z,16.98
2018-05-18T17:39:33.161Z,16.87
2018-05-18T17:42:00.716Z,17.05
2018-05-18T17:44:28.327Z,17.13
2018-05-18T17:46:56.948Z,17.20
2018-05-18T17:49:24.985Z,17.92
2018-05-18T17:51:52.549Z,17.35
2018-05-18T17:54:20.163Z,18.15
2018-05-18T17:56:47.743Z,17.56
2018-05-18T17:59:15.291Z,18.20
2018-05-18T18:01:43.244Z,18.52
2018-05-18T18:04:12.196Z,19.15
2018-05-18T18:06:40.997Z,19.25
2018-05-18T18:09:08.551Z,19.22
2018-05-18T18:11:36.095Z,19.05
2018-05-18T18:14:04.593Z,19.36
2018-05-18T18:16:32.144Z,19.16
2018-05-18T18:19:01.463Z,19.44
2018-05-18T18:21:28.996Z,19.98
2018-05-18T18:23:56.543Z,20.26
2018-05-18T18:26:24.111Z,21.25
2018-05-18T18:28:52.624Z,21.79
2018-05-18T18:31:20.620Z,22.50
2018-05-18T18:33:48.162Z,22.75
2018-05-18T18:36:18.236Z,24.38
2018-05-18T18:38:46.380Z,23.29
2018-05-18T18:41:13.923Z,23.88
2018-05-18T18:43:42.423Z,24.31
2018-05-18T18:46:10.145Z,24.98
2018-05-18T18:48:37.677Z,26.29
2018-05-18T18:51:05.674Z,27.15
2018-05-18T18:53:33.205Z,26.34
2018-05-18T18:56:02.407Z,27.40
2018-05-18T18:58:30.591Z,27.96
2018-05-18T19:01:00.242Z,28.86
2018-05-18T19:03:27.859Z,29.31
2018-05-18T19:05:57.691Z,29.55
2018-05-18T19:08:25.775Z,30.00
2018-05-18T19:10:53.354Z,30.64
2018-05-18T19:13:20.882Z,31.52
2018-05-18T19:15:48.878Z,32.42
2018-05-18T19:18:16.411Z,32.72
2018-05-18T19:20:43.969Z,32.83
2018-05-18T19:23:13.343Z,33.03
2018-05-18T19:25:41.655Z,35.01
2018-05-18T19:28:10.919Z,35.49
2018-05-18T19:30:40.181Z,34.41
2018-05-18T19:33:07.742Z,35.16
2018-05-18T19:35:35.273Z,35.54
2018-05-18T19:38:03.711Z,35.55
2018-05-18T19:40:31.239Z,37.51
2018-05-18T19:42:58.781Z,37.59
2018-05-18T19:45:26.356Z,38.69
2018-05-18T19:47:53.912Z,38.76
2018-05-18T19:50:21.931Z,38.51
2018-05-18T19:52:49.477Z,39.99
2018-05-18T19:55:18.190Z,39.65
2018-05-18T19:57:45.743Z,38.61
2018-05-18T20:00:14.517Z,38.84
2018-05-18T20:02:42.476Z,39.67
2018-05-18T20:05:11.195Z,40.24
2018-05-18T20:07:39.600Z,40.42
2018-05-18T20:10:07.815Z,40.52
2018-05-18T20:12:35.388Z,40.68
2018-05-18T20:15:03.379Z,41.51
2018-05-18T20:17:31.049Z,41.77
2018-05-18T20:19:58.643Z,43.79
2018-05-18T20:22:26.226Z,43.53
2018-05-18T20:24:53.820Z,42.98
2018-05-18T20:27:21.760Z,43.39
2018-05-18T20:29:49.885Z,43.56
2018-05-18T20:32:17.429Z,45.45
2018-05-18T20:34:44.994Z,45.01
2018-05-18T20:37:13.129Z,44.94
2018-05-18T20:39:41.111Z,44.64
2018-05-18T20:42:09.824Z,43.65
2018-05-18T20:44:38.570Z,43.65
2018-05-18T20:47:06.117Z,44.81
2018-05-18T20:49:34.144Z,44.25
2018-05-18T20:52:01.695Z,44.88
2018-05-18T20:54:29.765Z,45.75
2018-05-18T20:56:57.330Z,45.22
2018-05-18T20:59:25.830Z,45.21
2018-05-18T21:01:54.048Z,44.72
2018-05-18T21:04:21.607Z,45.03
2018-05-18T21:06:49.783Z,44.70
2018-05-18T21:09:17.334Z,44.52
2018-05-18T21:11:44.883Z,44.96
2018-05-18T21:14:13.023Z,45.24
2018-05-18T21:16:40.753Z,44.07
2018-05-18T21:19:08.282Z,44.42
2018-05-18T21:21:35.854Z,44.57
2018-05-18T21:24:03.449Z,44.32
2018-05-18T21:26:31.167Z,44.55
2018-05-18T21:28:59.350Z,44.54
2018-05-18T21:31:27.557Z,45.06
2018-05-18T21:33:55.087Z,46.53
2018-05-18T21:36:23.202Z,48.99
2018-05-18T21:38:50.733Z,48.92
2018-05-18T21:41:18.268Z,49.18
2018-05-18T21:43:46.752Z,49.23
2018-05-18T21:46:14.870Z,49.41
2018-05-18T21:48:42.567Z,49.41
2018-05-18T21:51:11.914Z,49.01
2018-05-18T21:53:39.451Z,49.08
2018-05-18T21:56:07.722Z,49.64
2018-05-18T21:58:35.338Z,49.29
2018-05-18T22:01:03.669Z,49.55
2018-05-18T22:03:32.047Z,50.84
2018-05-18T22:06:00.214Z,51.73
2018-05-18T22:08:28.202Z,52.11
2018-05-18T22:10:55.735Z,52.19
2018-05-18T22:13:23.289Z,52.23
2018-05-18T22:15:51.703Z,51.93
2018-05-18T22:18:19.774Z,52.59
2018-05-18T22:20:47.320Z,53.52
2018-05-18T22:23:14.857Z,53.21
2018-05-18T22:25:42.454Z,53.17
2018-05-18T22:28:10.939Z,52.77
2018-05-18T22:30:39.827Z,53.87
2018-05-18T22:33:08.188Z,53.69
2018-05-18T22:35:35.743Z,52.92
2018-05-18T22:38:04.020Z,54.87
2018-05-18T22:40:31.576Z,54.68
2018-05-18T22:42:59.105Z,55.03
2018-05-18T22:45:26.701Z,54.46
2018-05-18T22:47:55.515Z,53.99
2018-05-18T22:50:24.070Z,54.07
2018-05-18T22:52:51.846Z,54.46
2018-05-18T22:55:19.419Z,54.46
2018-05-18T22:57:47.180Z,54.20
2018-05-18T23:00:31.302Z,55.47
2018-05-18T23:02:58.846Z,54.89
2018-05-18T23:05:26.751Z,55.73
2018-05-18T23:07:55.017Z,55.46
2018-05-18T23:10:22.563Z,56.03
2018-05-18T23:12:50.108Z,56.02
2018-05-18T23:15:18.235Z,56.21
2018-05-18T23:17:45.778Z,56.82
2018-05-18T23:20:13.314Z,56.88
2018-05-18T23:22:41.910Z,56.19
2018-05-18T23:25:09.499Z,56.06
2018-05-18T23:27:37.531Z,57.01
2018-05-18T23:30:05.628Z,56.96
2018-05-18T23:32:33.157Z,57.07
2018-05-18T23:35:00.692Z,57.66
2018-05-18T23:37:28.739Z,58.51
2018-05-18T23:39:56.274Z,57.67
2018-05-18T23:42:23.806Z,57.83
2018-05-18T23:44:51.379Z,58.45
2018-05-18T23:47:19.518Z,59.65
2018-05-18T23:49:47.637Z,58.49
2018-05-18T23:52:15.691Z,59.68
2018-05-18T23:54:43.219Z,59.07
2018-05-18T23:57:11.271Z,59.43
2018-05-18T23:59:39.462Z,59.77
